Time;durP1;ratioP1;P1;durP2;ratioP2;P2;SDS_P1;SDS_P2;PMS_P1;PMS_P2;Temp;Humidity;BMP_temperature;BMP_pressure;BME280_temperature;BME280_humidity;BME280_pressure;Samples;Min_cycle;Max_cycle;Signal;HPM_P1;HPM_P2
2024/02/03 00:02:21;;;;;;;28.07;16.40;;;9.50;99.90;;;;;;5045865;28;20287;-82
2024/02/03 00:04:47;;;;;;;24.67;16.10;;;9.40;99.90;;;;;;5053528;28;20290;-81
2024/02/03 00:07:16;;;;;;;27.73;16.80;;;9.50;99.90;;;;;;5043018;28;20278;-81
2024/02/03 00:09:43;;;;;;;27.70;16.97;;;9.50;99.90;;;;;;5056739;28;20230;-83
2024/02/03 00:12:11;;;;;;;28.33;17.60;;;9.50;99.90;;;;;;5058474;28;20278;-81
2024/02/03 00:14:40;;;;;;;25.80;14.90;;;9.50;99.90;;;;;;5051482;28;20212;-83
2024/02/03 00:17:07;;;;;;;29.40;19.30;;;9.50;99.90;;;;;;5053133;28;20223;-81
2024/02/03 00:19:34;;;;;;;31.57;19.07;;;9.50;99.90;;;;;;5043371;28;20627;-79
2024/02/03 00:22:01;;;;;;;31.90;19.33;;;9.60;99.90;;;;;;5053691;28;20226;-82
2024/02/03 00:24:29;;;;;;;32.47;18.97;;;9.60;99.90;;;;;;5055117;28;20274;-82
2024/02/03 00:26:56;;;;;;;28.67;17.50;;;9.50;99.90;;;;;;5053871;28;20309;-83
2024/02/03 00:29:23;;;;;;;30.53;19.13;;;9.60;99.90;;;;;;5054179;28;20586;-81
2024/02/03 00:31:50;;;;;;;30.50;19.03;;;9.60;99.90;;;;;;5057693;28;20231;-79
2024/02/03 00:34:17;;;;;;;29.43;17.83;;;9.60;99.90;;;;;;5059628;28;20282;-80
2024/02/03 00:36:44;;;;;;;31.00;18.63;;;9.50;99.90;;;;;;5053517;28;20659;-82
2024/02/03 00:39:10;;;;;;;30.60;18.13;;;9.60;99.90;;;;;;5057295;28;20210;-80
2024/02/03 00:41:39;;;;;;;31.13;19.83;;;9.60;99.90;;;;;;5056069;28;20194;-81
2024/02/03 00:44:06;;;;;;;28.43;17.97;;;9.60;99.90;;;;;;5045093;28;20207;-81
2024/02/03 00:46:32;;;;;;;29.93;18.43;;;9.60;99.90;;;;;;5059491;28;20295;-80
2024/02/03 00:48:59;;;;;;;31.07;18.83;;;9.70;99.90;;;;;;5054044;28;20202;-80
2024/02/03 00:51:26;;;;;;;34.17;20.43;;;9.70;99.90;;;;;;5053846;28;20227;-83
2024/02/03 00:53:53;;;;;;;31.73;18.30;;;9.60;99.90;;;;;;5053254;28;20207;-82
2024/02/03 00:56:20;;;;;;;29.30;18.17;;;9.70;1.00;;;;;;5056470;28;20301;-82
2024/02/03 00:58:48;;;;;;;30.23;18.60;;;9.70;1.00;;;;;;5046807;28;20642;-82
2024/02/03 01:01:15;;;;;;;28.63;17.97;;;9.80;1.00;;;;;;5037120;28;20798;-81
2024/02/03 01:03:42;;;;;;;31.03;19.07;;;9.70;1.00;;;;;;5050873;28;20286;-81
2024/02/03 01:06:09;;;;;;;32.60;19.63;;;9.80;1.00;;;;;;5044374;28;20232;-82
2024/02/03 01:08:36;;;;;;;29.03;17.70;;;9.80;1.00;;;;;;5046620;28;20258;-81
2024/02/03 01:11:03;;;;;;;29.17;17.63;;;9.80;1.00;;;;;;5055187;28;20748;-82
2024/02/03 01:13:31;;;;;;;32.10;18.83;;;9.80;99.90;;;;;;5051564;28;20214;-81
2024/02/03 01:15:59;;;;;;;29.50;18.50;;;9.80;99.90;;;;;;5056053;28;20294;-81
2024/02/03 01:18:26;;;;;;;28.83;18.33;;;9.80;1.00;;;;;;5051265;28;22117;-81
2024/02/03 01:20:56;;;;;;;29.63;17.63;;;9.80;1.00;;;;;;5049430;28;20206;-82
2024/02/03 01:23:23;;;;;;;31.90;18.30;;;9.80;99.90;;;;;;5054405;28;20202;-82
2024/02/03 01:25:50;;;;;;;29.43;17.03;;;9.90;20.90;;;;;;5053752;28;20211;-81
2024/02/03 01:28:17;;;;;;;28.77;16.97;;;9.80;1.00;;;;;;5051388;28;20658;-82
2024/02/03 01:30:44;;;;;;;30.37;18.47;;;9.90;1.00;;;;;;5056768;28;20206;-81
2024/02/03 01:33:13;;;;;;;26.33;16.77;;;9.90;1.00;;;;;;5053696;28;20302;-82
2024/02/03 01:35:39;;;;;;;27.93;17.07;;;9.90;1.00;;;;;;5054735;28;20233;-81
2024/02/03 01:38:06;;;;;;;28.83;18.13;;;9.80;1.00;;;;;;5057023;28;20237;-80
2024/02/03 01:40:33;;;;;;;28.77;17.87;;;9.90;1.00;;;;;;5054374;28;20272;-81
2024/02/03 01:43:01;;;;;;;30.17;17.57;;;9.80;1.00;;;;;;5054292;28;20286;-81
2024/02/03 01:45:28;;;;;;;26.03;16.30;;;9.80;1.00;;;;;;5053225;28;20587;-81
2024/02/03 01:47:56;;;;;;;30.27;17.43;;;9.80;99.90;;;;;;5055869;28;20285;-80
2024/02/03 01:50:27;;;;;;;28.50;17.30;;;9.80;1.00;;;;;;5055884;28;20298;-81
2024/02/03 01:52:55;;;;;;;27.63;17.00;;;9.80;99.90;;;;;;5051777;28;20347;-80
2024/02/03 01:55:22;;;;;;;28.83;17.33;;;9.80;99.90;;;;;;5050483;28;20231;-82
2024/02/03 01:57:51;;;;;;;27.87;18.17;;;9.90;99.90;;;;;;5053714;28;20298;-82
2024/02/03 02:00:18;;;;;;;28.13;18.13;;;9.70;1.00;;;;;;5053851;28;20234;-81
2024/02/03 02:02:46;;;;;;;28.20;17.57;;;9.80;1.00;;;;;;5056054;28;20577;-79
2024/02/03 02:05:13;;;;;;;26.33;16.47;;;9.80;1.00;;;;;;5053622;28;20297;-83
2024/02/03 02:07:45;;;;;;;30.50;19.03;;;9.80;1.00;;;;;;5040437;28;20315;-82
2024/02/03 02:10:15;;;;;;;29.27;18.47;;;9.80;1.00;;;;;;5053930;28;20257;-81
2024/02/03 02:12:42;;;;;;;28.07;17.50;;;10.10;1.00;;;;;;5048873;28;20239;-81
2024/02/03 02:15:10;;;;;;;27.47;18.20;;;9.70;1.00;;;;;;5051112;28;20559;-81
2024/02/03 02:17:37;;;;;;;27.50;18.07;;;9.70;99.90;;;;;;5056197;28;20223;-82
2024/02/03 02:20:07;;;;;;;31.63;19.10;;;9.70;1.00;;;;;;5046944;28;20511;-82
2024/02/03 02:22:34;;;;;;;28.23;17.67;;;9.70;99.90;;;;;;5052810;28;20809;-80
2024/02/03 02:25:01;;;;;;;30.20;18.47;;;9.60;1.00;;;;;;5060287;28;20242;-81
2024/02/03 02:27:28;;;;;;;27.40;17.20;;;9.80;1.00;;;;;;5052173;28;20230;-82
2024/02/03 02:29:55;;;;;;;28.67;17.70;;;9.70;1.00;;;;;;5052852;28;20717;-81
2024/02/03 02:32:22;;;;;;;28.73;18.60;;;9.70;96.90;;;;;;5045211;28;20229;-81
2024/02/03 02:34:49;;;;;;;31.80;19.67;;;9.60;99.90;;;;;;5048266;28;20768;-81
2024/02/03 02:37:17;;;;;;;30.77;18.90;;;9.70;92.70;;;;;;5054143;28;20301;-81
2024/02/03 02:39:44;;;;;;;27.50;17.60;;;9.70;27.50;;;;;;5052979;28;20221;-81
2024/02/03 02:42:11;;;;;;;30.73;19.47;;;9.70;99.90;;;;;;5048049;28;20276;-82
2024/02/03 02:44:37;;;;;;;28.80;17.87;;;9.70;99.90;;;;;;5053220;28;20242;-81
2024/02/03 02:47:05;;;;;;;27.40;18.23;;;9.70;99.90;;;;;;5052101;28;20303;-79
2024/02/03 02:49:32;;;;;;;32.23;18.67;;;9.70;99.90;;;;;;5050240;28;20286;-80
2024/02/03 02:51:58;;;;;;;33.93;21.27;;;9.60;1.00;;;;;;5054773;28;20223;-81
2024/02/03 02:54:27;;;;;;;30.00;18.73;;;9.60;1.00;;;;;;5051900;28;20292;-80
2024/02/03 02:56:54;;;;;;;29.73;17.43;;;9.60;6.30;;;;;;5062872;28;20309;-80
2024/02/03 02:59:21;;;;;;;29.37;18.73;;;9.50;99.90;;;;;;5056996;28;20673;-82
2024/02/03 03:01:48;;;;;;;31.27;18.77;;;9.50;99.90;;;;;;5054565;28;20697;-81
2024/02/03 03:04:15;;;;;;;33.67;19.27;;;9.50;99.90;;;;;;5055931;28;20299;-82
2024/02/03 03:06:42;;;;;;;30.13;18.60;;;9.40;99.90;;;;;;5057163;28;20306;-80
2024/02/03 03:09:09;;;;;;;34.63;20.63;;;9.40;99.90;;;;;;5067191;28;20580;-82
2024/02/03 03:11:37;;;;;;;30.70;18.83;;;9.30;99.90;;;;;;5056539;28;20203;-81
2024/02/03 03:14:06;;;;;;;31.50;19.53;;;9.30;99.90;;;;;;5058959;28;20285;-81
2024/02/03 03:16:33;;;;;;;31.53;20.47;;;9.20;99.90;;;;;;5050329;28;20223;-82
2024/02/03 03:19:00;;;;;;;33.27;21.53;;;9.20;99.90;;;;;;5059525;28;20655;-81
2024/02/03 03:21:27;;;;;;;30.07;19.77;;;9.10;99.90;;;;;;5049011;28;20211;-81
2024/02/03 03:23:54;;;;;;;29.53;18.83;;;9.10;99.90;;;;;;5052234;28;20317;-82
2024/02/03 03:26:20;;;;;;;30.40;18.57;;;9.10;99.90;;;;;;5059689;28;20594;-81
2024/02/03 03:28:49;;;;;;;28.30;17.13;;;9.10;99.90;;;;;;5056978;28;20252;-81
2024/02/03 03:31:15;;;;;;;28.13;17.43;;;9.00;99.90;;;;;;5057541;28;20685;-79
2024/02/03 03:33:42;;;;;;;27.57;17.67;;;9.00;99.90;;;;;;5055965;28;20272;-81
2024/02/03 03:36:10;;;;;;;25.03;14.40;;;9.00;99.90;;;;;;5056893;28;20207;-81
2024/02/03 03:38:42;;;;;;;25.13;14.67;;;9.00;99.90;;;;;;5054676;28;20297;-80
2024/02/03 03:41:10;;;;;;;26.30;15.23;;;9.00;99.90;;;;;;5058611;28;20207;-82
2024/02/03 03:43:37;;;;;;;24.03;13.93;;;9.00;99.90;;;;;;5048027;28;20613;-83
2024/02/03 03:46:07;;;;;;;23.63;14.23;;;9.00;99.90;;;;;;5054922;28;20203;-80
2024/02/03 03:48:34;;;;;;;24.50;14.53;;;9.00;99.90;;;;;;5072554;28;20217;-82
2024/02/03 03:51:00;;;;;;;24.87;14.20;;;9.00;99.90;;;;;;5058256;28;20195;-80
2024/02/03 03:53:27;;;;;;;22.13;13.17;;;9.00;99.90;;;;;;5053038;28;20219;-83
2024/02/03 03:55:54;;;;;;;21.27;12.43;;;9.00;99.90;;;;;;5056425;28;20203;-81
2024/02/03 03:58:21;;;;;;;21.80;11.47;;;8.90;99.90;;;;;;5048479;28;20203;-82
2024/02/03 04:00:48;;;;;;;21.90;12.53;;;8.90;99.90;;;;;;5056011;28;20670;-80
2024/02/03 04:03:16;;;;;;;23.03;12.33;;;8.90;99.90;;;;;;5046613;28;20203;-82
2024/02/03 04:05:43;;;;;;;23.63;13.47;;;8.90;99.90;;;;;;5051984;28;20214;-81
2024/02/03 04:08:10;;;;;;;21.33;11.73;;;8.90;99.90;;;;;;5050936;28;20238;-82
2024/02/03 04:10:37;;;;;;;21.33;11.73;;;8.80;99.90;;;;;;5056127;28;20211;-82
2024/02/03 04:13:04;;;;;;;22.33;12.77;;;8.90;99.90;;;;;;5061573;28;20301;-82
2024/02/03 04:15:31;;;;;;;20.17;11.70;;;8.90;99.90;;;;;;5066239;28;20286;-82
2024/02/03 04:17:58;;;;;;;19.80;11.23;;;8.90;99.90;;;;;;5056379;28;20227;-81
2024/02/03 04:20:26;;;;;;;20.23;11.30;;;8.90;99.90;;;;;;5062821;28;20584;-80
2024/02/03 04:22:53;;;;;;;19.73;11.07;;;8.90;99.90;;;;;;5056256;28;20266;-83
2024/02/03 04:25:20;;;;;;;19.77;10.87;;;8.90;99.90;;;;;;5053539;28;20207;-80
2024/02/03 04:27:47;;;;;;;17.10;10.17;;;8.90;99.90;;;;;;5052094;28;20225;-80
2024/02/03 04:30:14;;;;;;;18.73;10.57;;;8.90;99.90;;;;;;5051398;28;20213;-81
2024/02/03 04:32:40;;;;;;;16.77;9.20;;;8.90;99.90;;;;;;5058456;28;20219;-82
2024/02/03 04:35:08;;;;;;;17.77;9.13;;;9.10;99.90;;;;;;5056405;28;20196;-83
2024/02/03 04:37:36;;;;;;;15.90;8.63;;;9.00;99.90;;;;;;5054863;28;20227;-82
2024/02/03 04:40:03;;;;;;;17.57;9.17;;;9.00;99.90;;;;;;5053366;28;20656;-83
2024/02/03 04:42:30;;;;;;;16.67;8.57;;;9.00;99.90;;;;;;5055320;28;20233;-80
2024/02/03 04:44:57;;;;;;;17.47;9.43;;;9.00;99.90;;;;;;5058453;28;20209;-83
2024/02/03 04:47:23;;;;;;;14.70;8.03;;;9.00;99.90;;;;;;5049253;28;20223;-82
2024/02/03 04:49:50;;;;;;;14.20;8.23;;;9.00;99.90;;;;;;5053367;28;20218;-83
2024/02/03 04:52:17;;;;;;;14.77;7.33;;;9.00;99.90;;;;;;5055703;28;20213;-81
2024/02/03 04:54:45;;;;;;;13.67;7.40;;;9.50;99.90;;;;;;5070564;28;20206;-82
2024/02/03 04:57:12;;;;;;;13.50;7.40;;;8.90;99.90;;;;;;5044224;28;20720;-82
2024/02/03 04:59:38;;;;;;;12.37;7.10;;;8.90;99.90;;;;;;5049936;28;20203;-82
2024/02/03 05:02:06;;;;;;;12.33;6.77;;;8.90;99.90;;;;;;5055050;28;20637;-82
2024/02/03 05:04:32;;;;;;;13.23;7.60;;;8.90;99.90;;;;;;5053670;28;20253;-81
2024/02/03 05:06:59;;;;;;;12.17;7.07;;;8.90;99.90;;;;;;5048759;28;20756;-81
2024/02/03 05:09:26;;;;;;;12.83;7.20;;;8.90;99.90;;;;;;5053753;28;20306;-82
2024/02/03 05:11:54;;;;;;;10.40;6.20;;;8.90;99.90;;;;;;5056899;28;20215;-80
2024/02/03 05:14:22;;;;;;;12.63;7.13;;;8.90;99.90;;;;;;5054084;28;20229;-81
2024/02/03 05:16:48;;;;;;;12.83;6.60;;;8.90;99.90;;;;;;5057437;28;20330;-83
2024/02/03 05:19:16;;;;;;;11.33;5.97;;;8.90;99.90;;;;;;5056911;28;20201;-82
2024/02/03 05:21:45;;;;;;;11.57;6.57;;;8.90;99.90;;;;;;5054895;28;20250;-82
2024/02/03 05:24:12;;;;;;;10.43;5.70;;;8.80;99.90;;;;;;5056614;28;20194;-83
2024/02/03 05:26:39;;;;;;;12.03;6.57;;;8.80;99.90;;;;;;5046466;28;20219;-82
2024/02/03 05:29:07;;;;;;;9.87;6.07;;;8.80;99.90;;;;;;5057438;28;20681;-79
2024/02/03 05:31:34;;;;;;;10.73;5.77;;;8.90;99.90;;;;;;5051024;28;20199;-83
2024/02/03 05:34:00;;;;;;;10.93;6.43;;;8.90;99.90;;;;;;5054364;28;20215;-81
2024/02/03 05:36:27;;;;;;;9.73;5.07;;;8.80;99.90;;;;;;5053707;28;20222;-82
2024/02/03 05:38:54;;;;;;;13.93;6.73;;;8.90;99.90;;;;;;5057547;28;20209;-82
2024/02/03 05:41:21;;;;;;;9.90;5.27;;;8.80;99.90;;;;;;5055012;28;20216;-82
2024/02/03 05:43:48;;;;;;;9.23;5.33;;;9.20;99.90;;;;;;5054415;28;20187;-82
2024/02/03 05:46:16;;;;;;;9.23;5.00;;;8.80;99.90;;;;;;5054366;28;20313;-82
2024/02/03 05:48:43;;;;;;;8.90;4.87;;;8.90;99.90;;;;;;5066125;28;20214;-83
2024/02/03 05:51:11;;;;;;;9.70;5.30;;;8.90;99.90;;;;;;5057707;28;20207;-83
2024/02/03 05:53:37;;;;;;;10.63;5.67;;;9.20;99.90;;;;;;5053486;28;20272;-83
2024/02/03 05:56:05;;;;;;;9.20;5.17;;;8.90;99.90;;;;;;5051874;28;21191;-82
2024/02/03 05:58:32;;;;;;;8.87;5.30;;;8.90;99.90;;;;;;5049991;28;20313;-83
2024/02/03 06:00:58;;;;;;;9.90;5.20;;;9.00;99.90;;;;;;5061776;28;20210;-80
2024/02/03 06:03:26;;;;;;;11.10;6.10;;;9.00;99.90;;;;;;5054354;28;20211;-81
2024/02/03 06:05:53;;;;;;;7.10;4.00;;;8.90;99.90;;;;;;5053633;28;20199;-83
2024/02/03 06:08:20;;;;;;;7.47;4.70;;;9.00;99.90;;;;;;5035858;28;20310;-83
2024/02/03 06:10:47;;;;;;;7.73;4.30;;;9.00;99.90;;;;;;5054627;28;20199;-82
2024/02/03 06:13:14;;;;;;;6.50;4.17;;;9.10;99.90;;;;;;5051760;28;20229;-83
2024/02/03 06:15:41;;;;;;;7.23;4.03;;;9.10;99.90;;;;;;5054113;28;20195;-83
2024/02/03 06:18:08;;;;;;;6.40;3.60;;;9.10;99.90;;;;;;5055959;28;20230;-82
2024/02/03 06:20:36;;;;;;;6.47;3.80;;;9.10;99.90;;;;;;5047557;28;20645;-83
2024/02/03 06:23:03;;;;;;;6.20;3.93;;;9.20;99.90;;;;;;5059660;28;20203;-82
2024/02/03 06:25:29;;;;;;;6.00;3.03;;;9.40;99.90;;;;;;5058085;28;20203;-82
2024/02/03 06:27:56;;;;;;;5.40;3.63;;;9.30;99.90;;;;;;5053080;28;20597;-81
2024/02/03 06:30:23;;;;;;;5.53;3.57;;;9.30;99.90;;;;;;5048890;28;20571;-81
2024/02/03 06:32:50;;;;;;;3.90;2.40;;;9.30;99.90;;;;;;5057111;28;20206;-82
2024/02/03 06:35:16;;;;;;;4.87;3.40;;;9.40;99.90;;;;;;5051132;28;20657;-82
2024/02/03 06:37:45;;;;;;;4.37;2.93;;;9.40;99.90;;;;;;5053732;28;20215;-83
2024/02/03 06:40:12;;;;;;;4.80;3.10;;;9.40;99.90;;;;;;5058085;28;20723;-82
2024/02/03 06:42:39;;;;;;;5.57;3.20;;;9.50;99.90;;;;;;5057383;28;20200;-82
2024/02/03 06:45:07;;;;;;;4.10;2.70;;;9.50;99.90;;;;;;5056686;28;20249;-80
2024/02/03 06:47:34;;;;;;;4.13;2.97;;;9.60;99.90;;;;;;5063401;28;20729;-80
2024/02/03 06:50:01;;;;;;;5.67;3.40;;;9.60;99.90;;;;;;5047625;28;20208;-82
2024/02/03 06:52:28;;;;;;;5.30;3.23;;;9.60;99.90;;;;;;5056429;28;20199;-82
2024/02/03 06:54:56;;;;;;;4.60;3.30;;;9.60;99.90;;;;;;5053220;28;20314;-80
2024/02/03 06:57:23;;;;;;;4.83;3.10;;;9.60;99.90;;;;;;5050953;28;20223;-82
2024/02/03 06:59:50;;;;;;;5.07;3.60;;;9.60;99.90;;;;;;5055185;28;20849;-81
2024/02/03 07:02:17;;;;;;;5.27;3.80;;;9.50;99.90;;;;;;5056259;28;20199;-79
2024/02/03 07:04:44;;;;;;;6.53;3.50;;;9.40;99.90;;;;;;5055905;28;20203;-79
2024/02/03 07:07:10;;;;;;;4.97;3.30;;;9.50;99.90;;;;;;5045611;28;20739;-81
2024/02/03 07:09:37;;;;;;;3.70;2.90;;;9.50;99.90;;;;;;5060598;28;20205;-83
2024/02/03 07:12:06;;;;;;;4.47;3.23;;;9.50;99.90;;;;;;5053402;28;20199;-82
2024/02/03 07:14:33;;;;;;;5.73;3.53;;;9.50;99.90;;;;;;5052501;28;20223;-81
2024/02/03 07:17:00;;;;;;;4.57;3.23;;;9.40;99.90;;;;;;5054362;28;20223;-80
2024/02/03 07:19:29;;;;;;;4.00;2.97;;;9.40;99.90;;;;;;5060257;28;20206;-83
2024/02/03 07:21:55;;;;;;;5.27;3.23;;;9.40;99.90;;;;;;5049371;28;20203;-81
2024/02/03 07:24:24;;;;;;;4.90;3.30;;;9.40;99.90;;;;;;5049076;28;20218;-81
2024/02/03 07:26:51;;;;;;;7.30;3.50;;;9.50;99.90;;;;;;5056233;28;20217;-81
2024/02/03 07:29:19;;;;;;;4.20;3.07;;;9.50;99.90;;;;;;5048019;28;20203;-79
2024/02/03 07:31:46;;;;;;;2.93;2.40;;;9.60;99.90;;;;;;5041920;28;20199;-79
2024/02/03 07:34:12;;;;;;;3.33;2.40;;;9.90;99.90;;;;;;5053044;28;20223;-80
2024/02/03 07:36:39;;;;;;;3.93;2.90;;;9.70;99.90;;;;;;5057528;28;20219;-81
2024/02/03 07:39:08;;;;;;;4.33;2.87;;;9.70;99.90;;;;;;5057180;28;20219;-82
2024/02/03 07:41:35;;;;;;;5.27;3.20;;;9.80;99.90;;;;;;5052628;28;20210;-81
2024/02/03 07:44:01;;;;;;;4.00;2.80;;;9.70;99.90;;;;;;5055716;28;20216;-82
2024/02/03 07:46:30;;;;;;;5.80;3.10;;;9.80;99.90;;;;;;5053765;28;20693;-80
2024/02/03 07:48:56;;;;;;;4.00;2.60;;;10.40;99.90;;;;;;5049165;28;20578;-81
2024/02/03 07:51:23;;;;;;;3.73;2.83;;;9.80;99.90;;;;;;5051001;28;20195;-82
2024/02/03 07:53:50;;;;;;;5.40;3.27;;;9.80;99.90;;;;;;5050574;28;20210;-80
2024/02/03 07:56:17;;;;;;;4.70;3.30;;;9.90;99.90;;;;;;5052240;28;20653;-80
2024/02/03 07:58:45;;;;;;;5.23;3.27;;;9.80;99.90;;;;;;5050625;28;20199;-81
2024/02/03 08:01:12;;;;;;;4.73;3.10;;;10.00;99.90;;;;;;5059975;28;20198;-83
2024/02/03 08:03:40;;;;;;;4.13;3.10;;;9.90;99.90;;;;;;5055620;28;20204;-82
2024/02/03 08:06:07;;;;;;;4.40;3.50;;;9.90;99.90;;;;;;5044262;28;20204;-80
2024/02/03 08:08:34;;;;;;;5.63;3.40;;;10.00;99.90;;;;;;5045706;28;20214;-81
2024/02/03 08:11:01;;;;;;;4.60;3.40;;;9.90;99.90;;;;;;5045576;28;20276;-80
2024/02/03 08:13:28;;;;;;;5.10;3.70;;;10.00;99.90;;;;;;5045608;28;20203;-80
2024/02/03 08:15:55;;;;;;;6.07;3.90;;;9.90;99.90;;;;;;5050539;28;20203;-82
2024/02/03 08:18:21;;;;;;;5.37;3.60;;;10.30;99.90;;;;;;5051236;28;20200;-83
2024/02/03 08:20:50;;;;;;;5.60;3.80;;;10.00;99.90;;;;;;5049452;28;20207;-82
2024/02/03 08:23:17;;;;;;;6.47;4.47;;;10.00;99.90;;;;;;5051840;28;20203;-81
2024/02/03 08:25:43;;;;;;;5.77;3.97;;;10.00;99.90;;;;;;5051022;28;20230;-80
2024/02/03 08:28:10;;;;;;;6.20;3.70;;;10.00;99.90;;;;;;5053790;28;20237;-80
2024/02/03 08:30:39;;;;;;;4.70;3.50;;;10.00;99.90;;;;;;5055597;28;20209;-80
2024/02/03 08:33:06;;;;;;;5.27;3.10;;;10.10;99.90;;;;;;5055445;28;20206;-79
2024/02/03 08:35:33;;;;;;;4.47;3.37;;;10.20;99.90;;;;;;5050647;28;20238;-79
2024/02/03 08:38:01;;;;;;;4.90;3.07;;;10.10;99.90;;;;;;5044820;28;20227;-80
2024/02/03 08:40:28;;;;;;;3.47;2.70;;;10.10;99.90;;;;;;5050502;28;20199;-80
2024/02/03 08:42:55;;;;;;;3.67;2.87;;;10.20;99.90;;;;;;5052851;28;20303;-80
2024/02/03 08:45:22;;;;;;;4.33;3.10;;;10.20;99.90;;;;;;5048468;28;20399;-80
2024/02/03 08:47:49;;;;;;;2.63;2.43;;;10.20;99.90;;;;;;5052731;28;20218;-80
2024/02/03 08:50:16;;;;;;;2.90;2.10;;;10.40;99.90;;;;;;5049990;28;20200;-80
2024/02/03 08:52:42;;;;;;;2.73;2.13;;;10.20;99.90;;;;;;5046667;28;20205;-79
2024/02/03 08:55:11;;;;;;;2.97;2.67;;;10.20;99.90;;;;;;5053059;28;20219;-80
2024/02/03 08:57:37;;;;;;;2.47;1.90;;;10.30;99.90;;;;;;5047195;28;20249;-80
2024/02/03 09:00:05;;;;;;;1.53;1.37;;;10.20;99.90;;;;;;5046653;28;20222;-81
2024/02/03 09:02:32;;;;;;;2.50;2.10;;;10.20;99.90;;;;;;5044893;28;20214;-81
2024/02/03 09:04:59;;;;;;;2.97;2.10;;;10.20;99.90;;;;;;5048737;28;20195;-79
2024/02/03 09:07:26;;;;;;;2.63;2.10;;;10.20;99.90;;;;;;5048395;28;20227;-79
2024/02/03 09:09:53;;;;;;;2.43;1.83;;;10.20;99.90;;;;;;5053550;28;20571;-78
2024/02/03 09:12:21;;;;;;;2.77;2.10;;;10.10;99.90;;;;;;5050587;28;20203;-77
2024/02/03 09:14:48;;;;;;;2.20;1.93;;;10.10;99.90;;;;;;5053460;28;20226;-80
2024/02/03 09:17:15;;;;;;;4.33;2.20;;;10.10;99.90;;;;;;5052746;28;20214;-80
2024/02/03 09:19:42;;;;;;;2.93;1.97;;;10.20;99.90;;;;;;5049502;28;20202;-79
2024/02/03 09:22:08;;;;;;;2.90;2.30;;;10.10;99.90;;;;;;5051819;28;20203;-80
2024/02/03 09:24:35;;;;;;;3.37;2.10;;;10.10;99.90;;;;;;5047327;28;20210;-82
2024/02/03 09:27:02;;;;;;;3.33;2.07;;;10.20;99.90;;;;;;5057986;28;20233;-79
2024/02/03 09:29:30;;;;;;;2.87;2.07;;;10.10;99.90;;;;;;5049591;28;20253;-81
2024/02/03 09:31:57;;;;;;;2.67;2.40;;;10.10;99.90;;;;;;5048406;28;20210;-82
2024/02/03 09:34:24;;;;;;;4.83;2.40;;;10.10;99.90;;;;;;5050056;28;20222;-79
2024/02/03 09:36:51;;;;;;;3.23;2.37;;;10.10;99.90;;;;;;5053777;28;20211;-79
2024/02/03 09:39:18;;;;;;;3.07;2.40;;;10.00;99.90;;;;;;5053166;28;20211;-80
2024/02/03 09:41:45;;;;;;;3.80;2.63;;;10.00;99.90;;;;;;5048738;28;20207;-83
2024/02/03 09:44:12;;;;;;;3.73;2.67;;;10.00;99.90;;;;;;5051648;28;20567;-84
2024/02/03 09:46:41;;;;;;;3.03;2.60;;;10.00;99.90;;;;;;5051988;28;20218;-79
2024/02/03 09:49:08;;;;;;;4.83;2.63;;;10.10;99.90;;;;;;5046488;28;20210;-81
2024/02/03 09:51:35;;;;;;;3.83;2.90;;;10.10;99.90;;;;;;5039216;28;20290;-79
2024/02/03 09:54:03;;;;;;;3.57;2.60;;;10.10;99.90;;;;;;5051189;28;20257;-82
2024/02/03 09:56:30;;;;;;;4.00;2.97;;;10.10;99.90;;;;;;5051484;28;20708;-79
2024/02/03 09:58:56;;;;;;;3.80;2.90;;;10.20;99.90;;;;;;5052657;28;20202;-80
2024/02/03 10:01:23;;;;;;;4.73;3.40;;;10.20;99.90;;;;;;5064310;28;20214;-83
2024/02/03 10:03:58;;;;;;;3.90;3.37;;;10.20;99.90;;;;;;5059662;28;20213;-82
2024/02/03 10:06:24;;;;;;;6.40;3.60;;;10.10;99.90;;;;;;5051469;28;20576;-79
2024/02/03 10:08:52;;;;;;;6.20;3.77;;;10.10;99.90;;;;;;5048106;28;20245;-78
2024/02/03 10:11:19;;;;;;;4.83;3.67;;;10.20;99.90;;;;;;5053207;28;20198;-80
2024/02/03 10:13:48;;;;;;;5.93;3.80;;;10.30;99.90;;;;;;5058329;28;20203;-80
2024/02/03 10:16:15;;;;;;;5.23;3.50;;;10.40;99.90;;;;;;5061596;28;20222;-79
2024/02/03 10:18:41;;;;;;;4.67;3.40;;;10.50;99.90;;;;;;5056691;28;20549;-82
2024/02/03 10:21:10;;;;;;;4.87;3.47;;;10.50;99.90;;;;;;5056121;28;20214;-80
2024/02/03 10:23:37;;;;;;;4.80;2.83;;;10.70;99.90;;;;;;5062400;28;20309;-79
2024/02/03 10:26:04;;;;;;;3.30;2.80;;;10.70;99.90;;;;;;5064749;28;20195;-80
2024/02/03 10:28:31;;;;;;;4.00;2.70;;;10.70;99.90;;;;;;5058897;28;20199;-79
2024/02/03 10:31:04;;;;;;;3.47;2.40;;;10.70;99.90;;;;;;5060107;28;20206;-80
2024/02/03 10:33:31;;;;;;;2.27;1.80;;;10.70;99.90;;;;;;5049202;28;20234;-80
2024/02/03 10:35:59;;;;;;;2.23;2.00;;;10.70;99.90;;;;;;5057785;28;20230;-81
2024/02/03 10:38:27;;;;;;;2.13;1.93;;;10.60;99.90;;;;;;5059794;28;20203;-81
2024/02/03 10:40:55;;;;;;;3.20;2.03;;;10.60;99.90;;;;;;5071881;28;20218;-82
2024/02/03 10:43:25;;;;;;;4.40;2.83;;;10.80;99.90;;;;;;5058345;28;20213;-84
2024/02/03 10:45:53;;;;;;;2.37;2.17;;;10.70;99.90;;;;;;5064962;28;20666;-81
2024/02/03 10:48:20;;;;;;;2.60;2.40;;;10.70;99.90;;;;;;5056888;28;20206;-79
2024/02/03 10:50:52;;;;;;;1.97;1.83;;;10.70;99.90;;;;;;5064196;28;20213;-80
2024/02/03 10:53:25;;;;;;;4.60;1.70;;;10.60;99.90;;;;;;5052794;28;20211;-82
2024/02/03 10:55:56;;;;;;;2.57;2.37;;;10.60;99.90;;;;;;5055127;28;20227;-81
2024/02/03 10:58:25;;;;;;;2.63;2.40;;;10.60;99.90;;;;;;5057742;28;20223;-80
2024/02/03 11:00:52;;;;;;;3.13;2.73;;;10.70;99.90;;;;;;5057087;28;20225;-82
2024/02/03 11:03:20;;;;;;;3.20;2.90;;;10.70;99.90;;;;;;5058679;28;20205;-83
2024/02/03 11:05:47;;;;;;;5.07;3.90;;;10.70;99.90;;;;;;5055940;28;20727;-81
2024/02/03 11:08:14;;;;;;;4.67;3.37;;;10.80;99.90;;;;;;5041202;28;20713;-82
2024/02/03 11:10:42;;;;;;;4.63;3.70;;;10.80;99.90;;;;;;5051578;28;20281;-83
2024/02/03 11:13:21;;;;;;;5.33;4.20;;;10.80;99.90;;;;;;5048421;28;20211;-82
2024/02/03 11:15:48;;;;;;;6.00;4.23;;;10.80;99.90;;;;;;5046876;28;20234;-82
2024/02/03 11:18:15;;;;;;;5.40;4.20;;;10.70;99.90;;;;;;5050454;28;20222;-81
2024/02/03 11:20:42;;;;;;;5.83;4.60;;;10.80;99.90;;;;;;5059868;28;20235;-83
2024/02/03 11:23:13;;;;;;;8.60;5.40;;;10.70;99.90;;;;;;5054366;28;20199;-84
2024/02/03 11:25:43;;;;;;;8.33;5.37;;;10.70;99.90;;;;;;5053072;28;20195;-83
2024/02/03 11:28:10;;;;;;;6.20;4.87;;;10.70;99.90;;;;;;5050473;28;20215;-82
2024/02/03 11:30:38;;;;;;;8.47;5.87;;;10.60;99.90;;;;;;5048865;28;20204;-83
2024/02/03 11:33:13;;;;;;;8.60;5.57;;;10.50;99.90;;;;;;5050669;28;20581;-85
2024/02/03 11:35:42;;;;;;;9.93;6.03;;;10.50;99.90;;;;;;5049424;28;20907;-82
2024/02/03 11:38:09;;;;;;;8.23;5.00;;;10.50;99.90;;;;;;5050712;28;20681;-81
2024/02/03 11:40:43;;;;;;;9.27;5.77;;;10.50;99.90;;;;;;5056711;28;20217;-83
2024/02/03 11:43:11;;;;;;;6.67;5.03;;;10.60;99.90;;;;;;5058189;28;20607;-82
2024/02/03 11:45:44;;;;;;;7.93;5.63;;;10.60;99.90;;;;;;5047602;28;20210;-82
2024/02/03 11:48:12;;;;;;;9.80;5.77;;;10.60;99.90;;;;;;5057207;28;20230;-82
2024/02/03 11:50:39;;;;;;;8.80;5.73;;;10.70;99.90;;;;;;5052507;28;20207;-82
2024/02/03 11:53:06;;;;;;;12.00;7.10;;;10.80;99.90;;;;;;5048054;28;20203;-83
2024/02/03 11:55:33;;;;;;;9.60;5.93;;;10.80;99.90;;;;;;5053120;28;20222;-81
2024/02/03 11:57:59;;;;;;;10.37;6.60;;;10.90;99.90;;;;;;5050747;28;20266;-81
2024/02/03 12:00:26;;;;;;;10.13;5.97;;;11.00;99.90;;;;;;5051111;28;20207;-83
2024/02/03 12:02:54;;;;;;;9.70;7.20;;;10.90;99.90;;;;;;5041818;28;20204;-82
2024/02/03 12:05:21;;;;;;;12.70;7.47;;;10.90;99.90;;;;;;5047161;28;20212;-83
2024/02/03 12:07:48;;;;;;;15.33;9.20;;;10.90;99.90;;;;;;5054033;28;20274;-80
2024/02/03 12:10:15;;;;;;;11.47;7.47;;;10.90;99.90;;;;;;5048563;28;20274;-80
2024/02/03 12:12:42;;;;;;;9.80;7.30;;;11.00;99.90;;;;;;5049387;28;20579;-81
2024/02/03 12:15:10;;;;;;;10.30;6.93;;;10.90;99.90;;;;;;5047899;28;20223;-83
2024/02/03 12:17:37;;;;;;;9.00;6.80;;;10.90;99.90;;;;;;5043903;28;20749;-80
2024/02/03 12:20:21;;;;;;;9.50;6.73;;;10.90;99.90;;;;;;5045766;28;20638;-82
2024/02/03 12:22:48;;;;;;;10.53;7.07;;;10.90;99.90;;;;;;5054589;28;20211;-84
2024/02/03 12:25:16;;;;;;;10.03;7.50;;;10.90;99.90;;;;;;5056939;28;20290;-83
2024/02/03 12:27:43;;;;;;;11.57;7.90;;;10.80;99.90;;;;;;5052207;28;20318;-80
2024/02/03 12:30:16;;;;;;;10.33;7.37;;;10.80;99.90;;;;;;5052093;28;20207;-80
2024/02/03 12:32:43;;;;;;;13.93;8.97;;;10.80;99.90;;;;;;5047677;28;20195;-79
2024/02/03 12:35:11;;;;;;;13.23;9.00;;;10.80;99.90;;;;;;5051499;28;20254;-80
2024/02/03 12:37:38;;;;;;;11.67;8.43;;;10.90;99.90;;;;;;5049128;28;20854;-82
2024/02/03 12:40:06;;;;;;;10.40;7.97;;;10.90;99.90;;;;;;5051533;28;20213;-80
2024/02/03 12:42:33;;;;;;;11.40;7.93;;;10.90;99.90;;;;;;5054607;28;20207;-80
2024/02/03 12:45:01;;;;;;;11.80;7.80;;;10.90;99.90;;;;;;5051317;28;20231;-80
2024/02/03 12:47:27;;;;;;;11.77;7.50;;;10.90;99.90;;;;;;5050886;28;20234;-80